Des Moines, Iowa
Current Conditions -  °F | °C
As of 6:54 PM on Friday 24 Oct 2014 (Local Time) from KDSM Reporting Station
Haze Haze  
Wind Chill: 62°   Ceiling: 30000
Heat Index: 62°   Visibility: 6mi
Dew Point: 59°   Wind: 5mph
Humidity: 90%   Direction: 170°S
Pressure: 29.92"   Gusts: NA
Location:  41.59°N, 93.61°W
Report Text: KDSM 242354Z 17004KT 6SM BR FEW220 BKN300 17/15 A2992 RMK AO2 SLP128 T01670150 10200 20167 53009
Loading
Personal Weather Stations






























Interactive Weather Map
Tropical Storm Tracking
New forecast layout! Learn more

10-Day Weather Forecast

Advertisements
Track Severe Weather on mobile